Time;durP1;ratioP1;P1;durP2;ratioP2;P2;SDS_P1;SDS_P2;PMS_P1;PMS_P2;Temp;Humidity;BMP_temperature;BMP_pressure;BME280_temperature;BME280_humidity;BME280_pressure;Samples;Min_cycle;Max_cycle;Signal;HPM_P1;HPM_P2
2022/08/31 00:04:31;;;;;;;4.82;3.20;;;24.10;72.00;;;;;;6006558;29;20045;-77
2022/08/31 00:07:33;;;;;;;5.78;3.45;;;24.10;71.90;;;;;;6009538;29;20076;-78
2022/08/31 00:10:37;;;;;;;11.07;3.33;;;24.10;71.70;;;;;;5993365;29;20449;-77
2022/08/31 00:13:39;;;;;;;5.90;2.97;;;24.10;71.70;;;;;;6009535;29;20099;-77
2022/08/31 00:16:44;;;;;;;4.35;3.17;;;24.20;71.60;;;;;;5996601;29;20393;-77
2022/08/31 00:19:44;;;;;;;3.97;2.90;;;24.10;71.50;;;;;;5994395;29;20097;-78
2022/08/31 00:22:45;;;;;;;5.60;3.28;;;24.20;71.40;;;;;;5993700;29;20097;-77
2022/08/31 00:25:47;;;;;;;4.03;2.65;;;24.20;71.30;;;;;;6010292;29;20067;-78
2022/08/31 00:28:48;;;;;;;6.22;3.08;;;24.20;71.10;;;;;;5991740;29;20049;-77
2022/08/31 00:31:49;;;;;;;4.57;3.17;;;24.20;70.90;;;;;;5997285;29;20046;-77
2022/08/31 00:34:51;;;;;;;3.47;2.72;;;24.30;70.90;;;;;;5991862;29;20042;-77
2022/08/31 00:37:52;;;;;;;11.63;3.30;;;24.30;70.80;;;;;;6010070;29;20057;-78
2022/08/31 00:40:54;;;;;;;5.40;3.20;;;24.30;70.70;;;;;;5991638;29;20130;-77
2022/08/31 00:44:00;;;;;;;7.20;2.85;;;24.30;70.60;;;;;;6007318;29;20038;-77
2022/08/31 00:47:02;;;;;;;4.40;2.70;;;24.30;70.60;;;;;;6008245;29;20045;-78
2022/08/31 00:50:07;;;;;;;4.90;2.70;;;24.30;70.50;;;;;;5992599;29;20042;-78
2022/08/31 00:53:08;;;;;;;4.60;2.45;;;24.30;70.30;;;;;;6007512;29;20060;-78
2022/08/31 00:56:10;;;;;;;4.47;3.40;;;24.30;69.90;;;;;;5992119;29;20535;-78
2022/08/31 00:59:13;;;;;;;5.82;3.50;;;24.30;69.90;;;;;;6006837;29;20057;-77
2022/08/31 01:02:15;;;;;;;9.93;4.10;;;24.20;70.00;;;;;;5994487;29;20038;-77
2022/08/31 01:05:17;;;;;;;9.38;3.70;;;24.20;70.20;;;;;;5982728;29;20037;-78
2022/08/31 01:08:19;;;;;;;9.32;4.00;;;24.20;70.00;;;;;;6004035;29;20380;-77
2022/08/31 01:11:21;;;;;;;7.10;4.15;;;24.10;70.00;;;;;;5991894;29;20041;-78
2022/08/31 01:14:22;;;;;;;9.07;3.38;;;24.10;70.20;;;;;;6009580;29;20050;-78
2022/08/31 01:17:23;;;;;;;9.05;3.45;;;24.00;70.20;;;;;;6009169;29;20049;-77
2022/08/31 01:20:53;;;;;;;4.57;3.00;;;24.00;70.30;;;;;;5972887;29;20472;-78
2022/08/31 01:23:58;;;;;;;8.23;3.33;;;24.00;70.60;;;;;;6006922;29;20048;-78
2022/08/31 01:27:03;;;;;;;7.13;3.05;;;24.00;70.10;;;;;;6008225;29;20068;-78
2022/08/31 01:30:09;;;;;;;12.13;3.47;;;23.90;69.90;;;;;;6006697;29;20054;-78
2022/08/31 01:33:12;;;;;;;8.50;3.20;;;23.90;69.90;;;;;;6007549;29;20045;-78
2022/08/31 01:36:13;;;;;;;4.88;2.67;;;23.80;70.00;;;;;;5993742;29;20046;-78
2022/08/31 01:39:14;;;;;;;9.35;3.50;;;23.90;70.90;;;;;;5977491;29;20046;-78
2022/08/31 01:42:18;;;;;;;6.97;3.20;;;23.90;70.00;;;;;;6008513;29;20038;-79
2022/08/31 01:45:20;;;;;;;7.38;3.50;;;23.80;69.80;;;;;;5990307;29;20469;-78
2022/08/31 01:48:22;;;;;;;7.40;3.40;;;23.80;69.80;;;;;;5976944;29;20053;-78
2022/08/31 01:51:23;;;;;;;9.20;3.22;;;23.80;69.90;;;;;;5991407;29;20480;-78
2022/08/31 01:54:26;;;;;;;4.20;3.03;;;23.80;70.00;;;;;;5992804;29;20117;-78
2022/08/31 01:57:27;;;;;;;15.52;3.33;;;23.90;70.10;;;;;;6008470;29;20042;-78
2022/08/31 02:00:58;;;;;;;5.85;3.25;;;23.90;70.10;;;;;;5985462;29;20049;-78
2022/08/31 02:04:04;;;;;;;4.20;2.70;;;24.00;70.00;;;;;;6008148;29;20376;-78
2022/08/31 02:07:05;;;;;;;5.65;3.03;;;24.00;70.00;;;;;;5997814;29;20057;-78
2022/08/31 02:10:08;;;;;;;7.97;2.72;;;24.00;69.90;;;;;;5989429;29;20042;-78
2022/08/31 02:13:09;;;;;;;7.90;3.17;;;24.00;70.00;;;;;;6015391;29;20071;-78
2022/08/31 02:16:11;;;;;;;6.57;2.95;;;24.00;70.00;;;;;;6013616;29;20041;-78
2022/08/31 02:19:13;;;;;;;5.65;3.28;;;24.00;70.00;;;;;;5990354;29;20071;-79
2022/08/31 02:22:13;;;;;;;6.15;3.22;;;24.00;70.00;;;;;;6015460;29;20046;-78
2022/08/31 02:25:18;;;;;;;4.93;2.92;;;24.00;70.10;;;;;;5986113;29;20113;-79
2022/08/31 02:28:19;;;;;;;13.10;3.83;;;24.00;70.20;;;;;;5998548;29;20041;-79
2022/08/31 02:31:20;;;;;;;5.63;3.33;;;24.00;70.10;;;;;;6000112;29;20368;-78
2022/08/31 02:34:28;;;;;;;5.53;2.97;;;24.00;70.00;;;;;;6009206;29;20045;-79
2022/08/31 02:37:29;;;;;;;3.67;2.88;;;24.10;69.80;;;;;;6003131;29;20344;-78
2022/08/31 02:40:30;;;;;;;12.20;3.15;;;24.10;69.70;;;;;;5997935;29;20074;-79
2022/08/31 02:43:32;;;;;;;8.93;2.60;;;24.10;69.60;;;;;;6017049;29;20061;-80
2022/08/31 02:46:33;;;;;;;3.80;2.80;;;24.20;69.60;;;;;;5991823;29;20042;-79
2022/08/31 02:50:07;;;;;;;3.50;2.28;;;24.10;69.50;;;;;;5901038;30;20036;-79
2022/08/31 02:53:13;;;;;;;6.22;2.42;;;24.10;69.40;;;;;;5915928;30;20064;-78
2022/08/31 02:56:15;;;;;;;5.60;2.17;;;24.10;69.40;;;;;;5915314;30;20056;-79
2022/08/31 02:59:16;;;;;;;4.78;2.15;;;24.10;69.50;;;;;;5915046;30;20044;-79
2022/08/31 03:02:21;;;;;;;5.28;2.47;;;24.00;69.50;;;;;;5917209;30;20459;-79
2022/08/31 03:05:23;;;;;;;5.45;2.20;;;24.00;69.00;;;;;;5901582;30;20490;-79
2022/08/31 03:08:24;;;;;;;4.82;2.70;;;24.00;68.40;;;;;;5901846;30;20176;-79
2022/08/31 03:11:27;;;;;;;5.55;3.17;;;23.90;68.40;;;;;;5902039;30;20043;-79
2022/08/31 03:14:28;;;;;;;5.05;3.85;;;24.00;68.40;;;;;;5899757;30;20182;-79
2022/08/31 03:17:28;;;;;;;5.10;2.35;;;23.90;68.10;;;;;;5912277;30;20052;-78
2022/08/31 03:20:30;;;;;;;5.72;2.47;;;23.90;68.10;;;;;;5913445;30;20048;-78
2022/08/31 03:23:31;;;;;;;6.88;2.17;;;23.90;68.20;;;;;;5912285;29;20072;-79
2022/08/31 03:26:32;;;;;;;5.15;2.50;;;23.90;68.40;;;;;;5989100;29;20077;-79
2022/08/31 03:29:32;;;;;;;4.88;2.38;;;23.90;68.50;;;;;;6011257;29;20491;-79
2022/08/31 03:32:49;;;;;;;7.20;2.53;;;23.90;68.50;;;;;;6006811;29;20038;-79
2022/08/31 03:35:52;;;;;;;5.00;2.28;;;23.90;68.50;;;;;;6006683;29;20114;-79
2022/08/31 03:38:53;;;;;;;5.65;2.42;;;23.90;68.50;;;;;;6017884;29;20488;-78
2022/08/31 03:41:54;;;;;;;3.30;2.47;;;24.00;68.60;;;;;;6007151;29;20075;-79
2022/08/31 03:44:56;;;;;;;6.78;2.83;;;24.00;68.60;;;;;;6010651;29;20050;-78
2022/08/31 03:48:05;;;;;;;3.83;2.70;;;24.00;68.60;;;;;;6005116;29;20053;-78
2022/08/31 03:51:06;;;;;;;7.07;3.63;;;24.10;68.50;;;;;;5992574;29;20464;-79
2022/08/31 03:54:10;;;;;;;10.40;3.97;;;24.00;68.10;;;;;;6009202;29;20061;-79
2022/08/31 03:57:11;;;;;;;7.15;4.50;;;24.00;67.90;;;;;;6025269;29;20053;-79
2022/08/31 04:00:12;;;;;;;9.00;4.43;;;24.00;67.60;;;;;;6009664;29;20088;-79
2022/08/31 04:03:16;;;;;;;7.20;4.43;;;24.00;67.80;;;;;;6010464;29;20073;-78
2022/08/31 04:06:36;;;;;;;7.20;4.35;;;24.00;67.90;;;;;;6008786;29;20049;-79
2022/08/31 04:09:55;;;;;;;6.53;4.20;;;24.00;67.90;;;;;;6006985;29;20509;-79
2022/08/31 04:13:16;;;;;;;8.25;4.25;;;24.00;67.80;;;;;;6007799;29;20373;-78
2022/08/31 04:16:43;;;;;;;7.93;4.65;;;24.00;67.80;;;;;;6008686;29;20046;-79
2022/08/31 04:20:10;;;;;;;7.95;3.85;;;24.00;67.80;;;;;;6022606;29;20138;-79
2022/08/31 04:23:24;;;;;;;8.60;3.38;;;24.00;67.80;;;;;;5987291;29;20058;-79
2022/08/31 04:26:33;;;;;;;3.38;2.78;;;24.00;67.80;;;;;;6008123;29;20050;-78
2022/08/31 04:29:34;;;;;;;6.68;2.75;;;24.00;67.80;;;;;;6008938;29;20067;-78
2022/08/31 04:32:36;;;;;;;3.88;2.72;;;24.00;67.90;;;;;;6008755;29;20069;-78
2022/08/31 04:35:39;;;;;;;5.82;3.95;;;24.00;68.00;;;;;;6029433;29;20037;-79
2022/08/31 04:38:49;;;;;;;8.23;4.43;;;23.90;68.00;;;;;;6009451;29;20030;-79
2022/08/31 04:41:50;;;;;;;4.47;2.60;;;23.90;68.20;;;;;;6007460;29;20074;-79
2022/08/31 04:44:53;;;;;;;7.40;3.78;;;23.90;68.20;;;;;;5993758;29;20049;-79
2022/08/31 04:47:55;;;;;;;4.90;3.58;;;23.90;68.30;;;;;;6013984;29;20048;-79
2022/08/31 04:51:00;;;;;;;8.45;3.88;;;23.90;68.30;;;;;;6007674;29;20042;-79
2022/08/31 04:54:04;;;;;;;8.00;3.97;;;23.90;68.50;;;;;;6004247;29;20034;-79
2022/08/31 04:57:05;;;;;;;12.07;3.65;;;23.90;68.50;;;;;;6014762;29;20050;-79
2022/08/31 05:00:09;;;;;;;6.68;3.97;;;23.90;68.60;;;;;;6014066;29;20102;-79
2022/08/31 05:03:29;;;;;;;6.68;3.70;;;23.90;68.60;;;;;;6010438;29;20046;-79
2022/08/31 05:06:32;;;;;;;7.90;4.03;;;23.90;68.60;;;;;;6006642;29;20121;-80
2022/08/31 05:09:33;;;;;;;5.13;3.72;;;23.90;68.80;;;;;;6024209;29;20114;-80
2022/08/31 05:12:35;;;;;;;12.10;4.03;;;23.90;68.80;;;;;;6008617;29;20073;-78
2022/08/31 05:15:41;;;;;;;8.10;4.45;;;23.80;68.80;;;;;;6008517;29;20034;-79
2022/08/31 05:18:45;;;;;;;6.82;3.67;;;23.80;69.10;;;;;;6008860;29;20037;-79
2022/08/31 05:21:46;;;;;;;6.75;4.70;;;23.70;69.10;;;;;;6009040;29;20064;-78
2022/08/31 05:24:47;;;;;;;15.20;4.45;;;23.80;69.30;;;;;;6005803;29;20041;-79
2022/08/31 05:27:48;;;;;;;8.05;4.20;;;23.70;69.20;;;;;;6008437;29;20046;-79
2022/08/31 05:30:49;;;;;;;6.80;4.03;;;23.70;69.10;;;;;;6003472;29;20042;-79
2022/08/31 05:34:05;;;;;;;11.55;4.63;;;23.60;69.00;;;;;;6006168;29;20137;-79
2022/08/31 05:37:10;;;;;;;8.45;4.28;;;23.70;69.10;;;;;;5993402;29;20049;-78
2022/08/31 05:40:11;;;;;;;9.73;3.95;;;23.60;69.00;;;;;;6007620;29;20038;-79
2022/08/31 05:43:12;;;;;;;14.13;4.65;;;23.60;69.00;;;;;;6021853;29;20488;-80
2022/08/31 05:46:14;;;;;;;12.00;4.25;;;23.70;68.90;;;;;;5989549;29;20436;-79
2022/08/31 05:49:15;;;;;;;20.38;4.82;;;23.70;68.80;;;;;;6001666;29;20034;-80
2022/08/31 05:52:16;;;;;;;12.85;4.68;;;23.70;68.60;;;;;;6022468;29;20030;-80
2022/08/31 05:55:18;;;;;;;7.07;4.50;;;23.70;68.40;;;;;;6007253;29;20380;-79
2022/08/31 05:58:20;;;;;;;11.25;5.05;;;23.70;68.20;;;;;;6004831;29;20061;-79
2022/08/31 06:01:29;;;;;;;16.77;4.25;;;23.70;68.20;;;;;;5998808;29;20129;-79
2022/08/31 06:04:50;;;;;;;11.13;4.35;;;23.70;68.20;;;;;;6005423;29;20444;-79
2022/08/31 06:07:52;;;;;;;8.82;4.32;;;23.70;68.50;;;;;;6020511;29;20050;-80
2022/08/31 06:10:58;;;;;;;10.60;4.28;;;23.70;68.60;;;;;;6005714;29;20430;-80
2022/08/31 06:14:00;;;;;;;10.45;4.38;;;23.80;68.60;;;;;;6006077;29;20046;-79
2022/08/31 06:17:01;;;;;;;6.53;3.97;;;23.80;68.60;;;;;;6020394;29;20061;-79
2022/08/31 06:20:07;;;;;;;13.32;4.70;;;23.90;68.70;;;;;;5998876;29;20130;-79
2022/08/31 06:23:08;;;;;;;9.32;4.57;;;23.90;68.60;;;;;;6005429;29;20071;-79
2022/08/31 06:26:24;;;;;;;8.70;5.60;;;24.00;68.60;;;;;;6006375;29;20360;-81
2022/08/31 06:29:26;;;;;;;7.47;4.20;;;24.00;68.70;;;;;;6011753;29;20388;-80
2022/08/31 06:32:30;;;;;;;12.98;4.78;;;24.00;68.80;;;;;;6013661;29;20512;-81
2022/08/31 06:35:39;;;;;;;7.65;4.75;;;24.00;68.90;;;;;;6009292;29;20034;-81
2022/08/31 06:39:01;;;;;;;6.50;3.92;;;24.00;69.00;;;;;;6016513;29;21072;-80
2022/08/31 06:42:11;;;;;;;12.40;4.30;;;24.00;69.00;;;;;;6014014;29;20063;-80
2022/08/31 06:45:31;;;;;;;13.73;4.72;;;24.10;68.90;;;;;;6003872;29;20034;-80
2022/08/31 06:49:07;;;;;;;8.95;4.50;;;24.10;68.90;;;;;;5945005;29;20043;-80
2022/08/31 06:52:08;;;;;;;8.45;4.15;;;24.20;68.80;;;;;;5940994;29;20038;-80
2022/08/31 06:55:12;;;;;;;8.80;5.10;;;24.20;68.70;;;;;;5930350;29;20038;-80
2022/08/31 06:58:32;;;;;;;11.02;4.63;;;24.30;68.50;;;;;;5950293;29;20050;-79
2022/08/31 07:01:58;;;;;;;8.13;4.88;;;24.40;68.40;;;;;;5954934;29;20475;-79
2022/08/31 07:05:06;;;;;;;13.27;5.32;;;24.50;68.30;;;;;;5934190;29;20376;-79
2022/08/31 07:08:07;;;;;;;9.90;4.25;;;24.70;68.10;;;;;;5951803;29;20070;-79
2022/08/31 07:11:22;;;;;;;19.42;4.60;;;24.80;67.70;;;;;;5950848;29;20039;-78
2022/08/31 07:14:25;;;;;;;11.10;5.10;;;24.90;67.40;;;;;;5926475;29;20063;-80
2022/08/31 07:17:28;;;;;;;11.15;4.65;;;25.00;66.80;;;;;;5938048;29;20066;-79
2022/08/31 07:20:29;;;;;;;7.70;4.47;;;25.20;66.60;;;;;;5950018;29;20039;-80
2022/08/31 07:23:31;;;;;;;8.85;4.38;;;25.30;66.20;;;;;;5936316;29;20040;-78
2022/08/31 07:26:45;;;;;;;7.00;4.07;;;25.40;65.80;;;;;;5928284;29;20043;-79
2022/08/31 07:29:48;;;;;;;8.15;4.10;;;25.50;65.50;;;;;;5906881;29;20509;-79
2022/08/31 07:32:50;;;;;;;9.68;4.43;;;25.60;65.40;;;;;;5926693;29;20043;-80
2022/08/31 07:35:52;;;;;;;9.93;5.28;;;25.60;64.50;;;;;;5916313;29;20050;-79
2022/08/31 07:42:32;;;;;;;9.25;4.82;;;25.60;64.00;;;;;;6021657;29;20052;-81
2022/08/31 07:45:33;;;;;;;6.65;5.55;;;25.60;63.80;;;;;;6021281;29;20056;-80
2022/08/31 07:48:35;;;;;;;9.90;4.88;;;25.60;63.30;;;;;;6007737;29;20030;-79
2022/08/31 07:51:56;;;;;;;11.95;5.05;;;25.50;63.20;;;;;;6002176;29;20058;-79
2022/08/31 07:55:23;;;;;;;11.85;5.38;;;25.50;63.30;;;;;;5952500;29;20393;-79
2022/08/31 07:58:27;;;;;;;8.63;4.90;;;25.50;63.10;;;;;;5961728;29;20038;-79
2022/08/31 08:01:31;;;;;;;11.18;4.97;;;25.50;62.90;;;;;;5957919;29;20054;-79
2022/08/31 08:04:39;;;;;;;8.15;4.93;;;25.60;62.50;;;;;;5962089;29;20442;-79
2022/08/31 08:08:04;;;;;;;10.25;5.20;;;25.70;62.10;;;;;;5970032;29;20063;-79
2022/08/31 08:11:32;;;;;;;7.97;5.18;;;25.80;61.40;;;;;;5955888;29;20126;-79
2022/08/31 08:14:57;;;;;;;7.53;4.90;;;25.90;60.70;;;;;;5956102;29;20152;-80
2022/08/31 08:18:25;;;;;;;8.45;4.72;;;26.00;60.20;;;;;;5937440;29;20074;-79
2022/08/31 08:21:30;;;;;;;7.47;4.65;;;26.20;60.00;;;;;;5961160;29;20045;-79
2022/08/31 08:24:31;;;;;;;7.00;4.90;;;26.30;59.60;;;;;;5937775;29;20039;-80
2022/08/31 08:28:21;;;;;;;13.68;4.60;;;26.40;59.20;;;;;;5882842;30;20502;-80
2022/08/31 08:31:22;;;;;;;10.27;5.35;;;26.40;59.10;;;;;;5897999;29;20469;-81
2022/08/31 08:34:24;;;;;;;10.43;4.30;;;26.40;58.80;;;;;;5961383;29;20035;-80
2022/08/31 08:37:26;;;;;;;9.48;4.30;;;26.50;58.40;;;;;;5945784;29;20195;-80
2022/08/31 08:40:38;;;;;;;7.45;4.43;;;26.60;58.00;;;;;;5938202;29;20098;-80
2022/08/31 08:43:43;;;;;;;14.82;5.10;;;26.60;58.50;;;;;;5928036;29;20047;-80
2022/08/31 08:46:54;;;;;;;8.18;4.47;;;26.70;57.60;;;;;;5961537;29;20058;-80
2022/08/31 08:50:04;;;;;;;8.95;4.82;;;26.70;57.30;;;;;;5950100;29;20134;-80
2022/08/31 08:53:11;;;;;;;8.02;4.13;;;26.70;57.50;;;;;;5964064;29;20075;-79
2022/08/31 08:56:19;;;;;;;13.98;5.03;;;26.70;57.50;;;;;;5948023;29;20039;-79
2022/08/31 08:59:20;;;;;;;29.35;6.20;;;26.60;57.50;;;;;;5994067;29;20117;-79
2022/08/31 09:02:32;;;;;;;10.63;4.03;;;26.70;57.50;;;;;;6014541;29;20057;-79
2022/08/31 09:05:54;;;;;;;7.60;3.22;;;26.80;57.40;;;;;;6008523;29;20373;-79
2022/08/31 09:09:17;;;;;;;6.88;3.38;;;26.80;57.40;;;;;;5999237;29;20045;-80
2022/08/31 09:12:42;;;;;;;6.97;3.72;;;26.90;57.40;;;;;;6016781;29;20037;-79
2022/08/31 09:16:24;;;;;;;14.02;4.20;;;26.90;57.20;;;;;;6000131;29;20413;-79
2022/08/31 09:19:26;;;;;;;6.47;3.80;;;27.00;57.10;;;;;;5934068;29;20055;-79
2022/08/31 09:22:32;;;;;;;7.63;3.72;;;27.10;56.70;;;;;;5937194;29;20124;-80
2022/08/31 09:25:44;;;;;;;19.60;4.00;;;27.20;56.50;;;;;;5949366;29;20051;-79
2022/08/31 09:29:12;;;;;;;5.82;3.47;;;27.20;56.20;;;;;;5932421;29;20047;-80
2022/08/31 09:32:21;;;;;;;5.57;3.72;;;27.30;56.00;;;;;;5963192;29;20046;-80
2022/08/31 09:35:40;;;;;;;6.15;3.30;;;27.30;55.50;;;;;;5947965;29;20042;-80
2022/08/31 09:38:45;;;;;;;;;;;27.20;55.30;;;;;;5920850;29;20051;-81
2022/08/31 09:41:48;;;;;;;6.63;2.97;;;27.30;55.30;;;;;;5928103;29;20375;-81
2022/08/31 09:44:49;;;;;;;6.95;3.22;;;27.20;54.80;;;;;;5949875;29;20039;-80
2022/08/31 09:47:54;;;;;;;3.88;3.15;;;27.20;54.90;;;;;;5939174;29;20049;-79
2022/08/31 09:51:01;;;;;;;4.55;2.80;;;27.30;55.10;;;;;;5937774;29;20043;-79
2022/08/31 09:57:48;;;;;;;8.75;3.60;;;27.80;54.20;;;;;;6005963;29;20056;-80
2022/08/31 10:00:51;;;;;;;13.32;3.70;;;28.20;53.60;;;;;;5999962;29;20129;-79
2022/08/31 10:04:13;;;;;;;12.52;3.20;;;28.60;53.10;;;;;;5983341;29;20049;-80
2022/08/31 10:07:37;;;;;;;17.95;3.92;;;28.90;52.50;;;;;;6001046;29;20468;-80
2022/08/31 10:10:41;;;;;;;55.15;4.85;;;29.10;52.10;;;;;;5999560;29;20137;-78
2022/08/31 10:14:15;;;;;;;7.47;3.60;;;29.30;51.70;;;;;;6010834;29;20046;-81
2022/08/31 10:17:36;;;;;;;5.95;3.35;;;29.30;51.40;;;;;;6005494;29;20042;-81
2022/08/31 10:20:45;;;;;;;4.38;3.08;;;29.40;51.10;;;;;;6018140;29;20101;-79
2022/08/31 10:23:59;;;;;;;4.90;3.20;;;29.50;50.80;;;;;;6039762;29;20046;-79
2022/08/31 10:27:35;;;;;;;4.18;3.22;;;29.50;50.20;;;;;;6033369;29;20119;-79
2022/08/31 10:30:48;;;;;;;6.03;3.20;;;29.60;50.00;;;;;;6012323;29;20041;-78
2022/08/31 10:37:30;;;;;;;4.10;2.80;;;29.50;49.60;;;;;;6002414;29;20046;-79
2022/08/31 10:40:40;;;;;;;5.22;2.80;;;29.50;49.70;;;;;;6003574;29;20053;-79
2022/08/31 10:43:47;;;;;;;5.05;2.85;;;29.40;49.70;;;;;;6006961;29;20038;-81
2022/08/31 10:47:04;;;;;;;3.15;2.67;;;29.40;49.60;;;;;;6003177;29;20093;-80
2022/08/31 10:50:05;;;;;;;6.75;2.50;;;29.20;49.20;;;;;;6000088;29;20046;-81
2022/08/31 10:53:21;;;;;;;3.60;2.65;;;29.20;49.30;;;;;;5998446;29;20069;-80
2022/08/31 10:56:57;;;;;;;5.10;2.80;;;29.20;49.50;;;;;;6003017;29;20046;-80
2022/08/31 11:00:07;;;;;;;4.80;3.03;;;29.60;49.20;;;;;;5978210;29;20056;-81
2022/08/31 11:03:39;;;;;;;3.33;2.33;;;30.10;48.20;;;;;;6010208;29;20080;-80
2022/08/31 11:06:50;;;;;;;3.22;2.60;;;30.30;47.50;;;;;;6006966;29;20049;-80
2022/08/31 11:10:05;;;;;;;9.85;2.72;;;30.40;47.20;;;;;;6011069;29;20437;-80
2022/08/31 11:13:15;;;;;;;7.72;2.85;;;30.30;46.80;;;;;;6010633;29;20038;-79
2022/08/31 11:16:41;;;;;;;6.55;3.17;;;30.30;47.00;;;;;;5985666;29;20468;-79
2022/08/31 11:20:12;;;;;;;6.20;2.38;;;30.30;46.80;;;;;;6013319;29;20040;-79
2022/08/31 11:23:33;;;;;;;4.80;3.10;;;30.30;46.70;;;;;;6003890;29;20042;-79
2022/08/31 11:26:52;;;;;;;4.40;2.85;;;30.40;46.80;;;;;;6005683;29;20061;-80
2022/08/31 11:29:56;;;;;;;;;;;30.60;47.20;;;;;;6007152;29;20045;-80
2022/08/31 11:33:06;;;;;;;12.23;2.88;;;30.80;46.30;;;;;;5997459;29;19916;-80
2022/08/31 11:36:10;;;;;;;6.15;2.90;;;30.80;46.10;;;;;;6011785;29;20120;-80
2022/08/31 11:39:11;;;;;;;21.58;3.30;;;30.80;45.60;;;;;;5993244;29;20034;-80
2022/08/31 11:42:19;;;;;;;3.88;2.95;;;30.80;45.40;;;;;;5997591;29;20061;-78
2022/08/31 11:45:30;;;;;;;4.63;2.88;;;31.00;45.50;;;;;;5993721;29;20091;-79
2022/08/31 11:48:52;;;;;;;15.63;3.50;;;31.40;44.50;;;;;;5995053;29;20129;-78
2022/08/31 11:51:54;;;;;;;4.75;2.80;;;31.90;43.70;;;;;;5991788;29;20116;-79
2022/08/31 11:55:00;;;;;;;6.47;2.70;;;32.20;43.20;;;;;;6012561;29;20384;-79
2022/08/31 11:58:08;;;;;;;7.90;2.25;;;32.20;42.70;;;;;;6011024;29;20133;-79
2022/08/31 12:01:09;;;;;;;4.78;2.92;;;32.40;42.30;;;;;;5993190;29;20046;-79
2022/08/31 12:04:44;;;;;;;7.75;2.60;;;32.20;41.80;;;;;;5994137;29;20038;-79
2022/08/31 12:07:47;;;;;;;4.30;2.60;;;31.80;42.60;;;;;;5989429;29;20104;-79
2022/08/31 12:11:13;;;;;;;13.23;2.60;;;31.70;43.00;;;;;;5991794;29;20056;-79
2022/08/31 12:14:23;;;;;;;6.10;3.20;;;31.40;43.10;;;;;;5992687;29;20046;-79
2022/08/31 12:17:45;;;;;;;5.40;2.97;;;31.30;43.30;;;;;;5992458;29;20048;-78
2022/08/31 12:24:30;;;;;;;4.50;2.90;;;31.50;43.20;;;;;;5992118;29;20380;-79
2022/08/31 12:28:15;;;;;;;4.32;2.80;;;31.40;42.90;;;;;;6018628;29;20484;-79
2022/08/31 12:31:17;;;;;;;4.78;3.10;;;31.20;42.80;;;;;;5897064;30;20134;-80
2022/08/31 12:34:19;;;;;;;5.88;3.05;;;31.30;43.00;;;;;;5935827;29;20133;-80
2022/08/31 12:37:22;;;;;;;7.38;3.10;;;31.30;42.90;;;;;;5918779;29;20175;-79
2022/08/31 12:40:24;;;;;;;4.40;2.75;;;31.20;42.90;;;;;;5918638;29;20184;-78
2022/08/31 12:44:00;;;;;;;4.63;2.92;;;31.10;42.80;;;;;;5903660;30;20047;-79
2022/08/31 12:47:20;;;;;;;4.30;2.55;;;30.90;43.00;;;;;;5911188;29;20057;-80
2022/08/31 12:50:21;;;;;;;9.40;2.78;;;30.90;43.20;;;;;;5918164;29;20116;-79
2022/08/31 12:53:51;;;;;;;5.30;3.05;;;31.30;42.70;;;;;;5930995;29;20453;-79
2022/08/31 12:57:19;;;;;;;5.20;3.10;;;31.20;42.50;;;;;;5928014;29;20051;-79
2022/08/31 13:00:31;;;;;;;3.85;2.40;;;31.30;42.40;;;;;;5934071;29;20031;-79
2022/08/31 13:03:32;;;;;;;2.72;2.33;;;31.60;42.10;;;;;;5937993;29;20047;-78
2022/08/31 13:06:39;;;;;;;5.72;2.88;;;31.70;41.90;;;;;;6007689;29;20098;-79
2022/08/31 13:09:41;;;;;;;3.07;2.60;;;31.60;41.60;;;;;;5993631;29;20050;-78
2022/08/31 13:12:54;;;;;;;6.28;2.30;;;31.50;41.60;;;;;;5994190;29;20041;-80
2022/08/31 13:16:06;;;;;;;5.40;2.75;;;31.60;41.50;;;;;;5991055;29;20506;-80
2022/08/31 13:19:15;;;;;;;3.97;2.70;;;31.70;41.10;;;;;;6001866;29;20041;-80
2022/08/31 13:22:29;;;;;;;4.68;2.58;;;31.70;41.20;;;;;;6004813;29;20037;-79
2022/08/31 13:25:34;;;;;;;4.13;2.45;;;31.90;41.00;;;;;;6005829;29;20041;-80
2022/08/31 13:28:35;;;;;;;12.15;2.78;;;33.00;39.60;;;;;;6006742;29;20118;-79
2022/08/31 13:31:49;;;;;;;3.05;2.25;;;33.70;38.20;;;;;;6006345;29;20126;-80
2022/08/31 13:34:51;;;;;;;5.78;2.55;;;34.20;37.50;;;;;;5985809;29;20042;-79
2022/08/31 13:38:03;;;;;;;7.70;2.60;;;35.00;36.20;;;;;;6006818;29;20045;-79
2022/08/31 13:41:07;;;;;;;2.83;2.30;;;35.70;35.00;;;;;;5990858;29;20058;-78
2022/08/31 13:44:12;;;;;;;6.60;2.50;;;35.90;34.50;;;;;;5990222;29;20045;-80
2022/08/31 13:47:22;;;;;;;5.35;2.40;;;35.80;34.00;;;;;;5975174;29;20109;-79
2022/08/31 13:50:26;;;;;;;3.20;2.17;;;35.50;34.40;;;;;;6007489;29;20058;-78
2022/08/31 13:53:39;;;;;;;3.28;2.47;;;35.60;34.70;;;;;;5975914;29;20053;-79
2022/08/31 13:56:54;;;;;;;3.22;2.47;;;36.20;33.90;;;;;;5991256;29;20045;-79
2022/08/31 14:00:38;;;;;;;13.13;2.85;;;36.20;33.30;;;;;;6009987;29;20074;-79
2022/08/31 14:03:54;;;;;;;2.92;2.30;;;36.30;33.30;;;;;;6006344;29;20026;-79
2022/08/31 14:06:55;;;;;;;7.85;2.50;;;36.70;32.80;;;;;;6005604;29;20125;-79
2022/08/31 14:10:19;;;;;;;11.10;2.35;;;36.50;32.90;;;;;;6006003;29;20053;-80
2022/08/31 14:13:26;;;;;;;6.35;2.78;;;36.30;33.20;;;;;;6004490;29;20166;-79
2022/08/31 14:16:38;;;;;;;2.83;2.10;;;35.90;33.40;;;;;;5988632;29;20049;-79
2022/08/31 14:19:41;;;;;;;11.38;2.30;;;35.20;33.90;;;;;;5994906;29;20097;-80
2022/08/31 14:22:44;;;;;;;9.68;2.30;;;34.60;34.80;;;;;;5988988;29;20469;-79
2022/08/31 14:25:45;;;;;;;11.48;2.50;;;34.10;35.50;;;;;;6005692;29;20049;-82
2022/08/31 14:28:54;;;;;;;3.00;2.17;;;33.80;36.00;;;;;;5990915;29;20045;-81
2022/08/31 14:31:57;;;;;;;6.10;2.30;;;33.50;36.20;;;;;;5991319;29;20053;-80
2022/08/31 14:35:01;;;;;;;3.05;2.30;;;33.30;36.40;;;;;;5983122;29;20056;-80
2022/08/31 14:38:02;;;;;;;6.07;2.65;;;33.10;36.90;;;;;;6008082;29;20057;-81
2022/08/31 14:41:03;;;;;;;6.22;2.53;;;32.90;37.20;;;;;;5993290;29;20041;-81
2022/08/31 14:44:08;;;;;;;3.63;2.30;;;32.80;37.50;;;;;;6010162;29;20049;-82
2022/08/31 14:47:10;;;;;;;3.45;2.20;;;32.60;37.60;;;;;;6008901;29;20046;-81
2022/08/31 14:50:15;;;;;;;8.23;2.67;;;32.40;38.00;;;;;;5992322;29;20042;-80
2022/08/31 14:53:17;;;;;;;4.85;2.47;;;32.20;38.20;;;;;;5993995;29;20374;-80
2022/08/31 14:56:25;;;;;;;15.23;2.90;;;32.20;38.30;;;;;;6002967;29;20057;-80
2022/08/31 14:59:26;;;;;;;6.50;2.57;;;32.10;38.20;;;;;;6011520;29;20038;-81
2022/08/31 15:02:32;;;;;;;3.58;1.73;;;31.90;38.20;;;;;;5989444;29;20037;-79
2022/08/31 15:05:37;;;;;;;7.10;2.55;;;31.80;38.50;;;;;;6010554;29;20164;-79
2022/08/31 15:08:40;;;;;;;5.50;2.42;;;31.60;38.90;;;;;;6000155;29;20038;-79
2022/08/31 15:11:42;;;;;;;3.83;2.58;;;31.60;38.90;;;;;;5996351;29;20532;-79
2022/08/31 15:14:43;;;;;;;4.57;2.25;;;31.60;39.00;;;;;;6015153;29;20048;-79
2022/08/31 15:17:45;;;;;;;3.28;2.28;;;31.70;38.90;;;;;;6012917;29;20128;-79
2022/08/31 15:20:47;;;;;;;16.92;2.60;;;31.70;38.80;;;;;;5998323;29;20046;-79
2022/08/31 15:23:49;;;;;;;4.07;2.25;;;31.80;38.70;;;;;;6014554;29;20046;-79
2022/08/31 15:26:53;;;;;;;6.53;2.22;;;32.00;38.50;;;;;;6004323;29;20054;-78
2022/08/31 15:29:56;;;;;;;6.10;2.35;;;32.20;38.20;;;;;;6015208;29;20042;-81
2022/08/31 15:32:57;;;;;;;2.42;2.13;;;32.40;37.80;;;;;;6015660;29;20037;-80
2022/08/31 15:36:06;;;;;;;4.80;2.28;;;32.60;37.50;;;;;;6015745;29;20041;-80
2022/08/31 15:39:07;;;;;;;3.60;2.33;;;32.50;37.40;;;;;;6020771;29;20042;-78
2022/08/31 15:42:10;;;;;;;2.78;2.53;;;32.40;37.30;;;;;;6016372;29;20488;-79
2022/08/31 15:45:11;;;;;;;2.55;2.20;;;32.30;37.50;;;;;;6015079;29;20133;-79
2022/08/31 15:51:33;;;;;;;2.80;2.00;;;32.20;37.60;;;;;;6014472;29;20048;-80
2022/08/31 15:54:39;;;;;;;5.88;2.78;;;32.10;38.40;;;;;;6013922;29;20406;-80
2022/08/31 15:57:40;;;;;;;3.47;2.28;;;32.00;37.90;;;;;;6003883;29;20621;-80
2022/08/31 16:00:41;;;;;;;3.25;2.30;;;32.00;38.10;;;;;;6014568;29;20054;-80
2022/08/31 16:03:49;;;;;;;3.40;2.60;;;31.90;38.10;;;;;;6014874;29;20380;-79
2022/08/31 16:06:52;;;;;;;3.63;2.30;;;31.80;38.20;;;;;;6015284;29;20034;-80
2022/08/31 16:09:53;;;;;;;4.03;2.55;;;31.70;38.30;;;;;;6016308;29;20041;-80
2022/08/31 16:12:54;;;;;;;4.00;2.17;;;31.50;38.50;;;;;;6016093;29;20048;-80
2022/08/31 16:15:55;;;;;;;3.03;2.10;;;31.40;38.80;;;;;;6014841;29;20057;-80
2022/08/31 16:18:56;;;;;;;5.85;2.42;;;31.20;38.90;;;;;;6017326;29;20045;-79
2022/08/31 16:21:57;;;;;;;5.30;2.58;;;31.10;39.10;;;;;;6016033;29;20042;-78
2022/08/31 16:24:59;;;;;;;4.15;2.20;;;31.10;39.30;;;;;;5993876;29;20050;-78
2022/08/31 16:28:00;;;;;;;4.15;2.35;;;31.00;39.40;;;;;;6016581;29;20050;-79
2022/08/31 16:31:01;;;;;;;3.22;1.98;;;30.80;39.60;;;;;;6012617;29;20045;-79
2022/08/31 16:34:03;;;;;;;5.18;2.30;;;30.80;39.80;;;;;;6020222;29;20054;-78
2022/08/31 16:37:06;;;;;;;5.97;2.58;;;30.70;39.90;;;;;;6019790;29;20060;-80